EXS41CX LGZA-EGBB
Flight info
| Callsign | EXS41CX |
|---|---|
| Flight time | N/A |
| Altitude | 38000 |
| Route | KFN UM872 LATAN DCT PIKEL DCT VAPUP DCT LABIN DCT SOTOV P66 KPT L608 TEDGO DCT ADENU L608 DENUT L610 HEMEL |
| Aircraft | B738/M-SDE2E3FGHIRWXY/LB1 |
Departure
| Time | 2026-04-25 21:17 |
|---|---|
| Airport | Zakynthos International Airport Dionysios Solomos (LGZA) |
Arrival
| Time | N/A |
|---|---|
| Airport | Birmingham Airport (EGBB) |
| Time | Latitude | Longitude | Altitude | Speed | Heading |
|---|---|---|---|---|---|
| 2026-04-25 20:57 | 37.75408 | 20.88521 | 20 ft | 0 kts | 73° |
| 2026-04-25 21:09 | 37.75406 | 20.88509 | 19 ft | 3 kts | 73° |
| 2026-04-25 21:10 | 37.75400 | 20.88485 | 22 ft | 3 kts | 73° |
| 2026-04-25 21:10 | 37.75395 | 20.88465 | 21 ft | 3 kts | 78° |
| 2026-04-25 21:10 | 37.75394 | 20.88443 | 19 ft | 3 kts | 120° |
| 2026-04-25 21:10 | 37.75407 | 20.88428 | 22 ft | 3 kts | 160° |
| 2026-04-25 21:11 | 37.75420 | 20.88423 | 24 ft | 1 kts | 164° |
| 2026-04-25 21:11 | 37.75423 | 20.88422 | 24 ft | 0 kts | 164° |
| 2026-04-25 21:14 | 37.75420 | 20.88423 | 24 ft | 3 kts | 164° |
| 2026-04-25 21:14 | 37.75345 | 20.88453 | 19 ft | 19 kts | 162° |
| 2026-04-25 21:14 | 37.75180 | 20.88516 | 19 ft | 28 kts | 162° |
| 2026-04-25 21:14 | 37.75049 | 20.88485 | 18 ft | 23 kts | 200° |
| 2026-04-25 21:15 | 37.74851 | 20.88519 | 19 ft | 35 kts | 166° |
| 2026-04-25 21:15 | 37.74596 | 20.88613 | 20 ft | 39 kts | 164° |
| 2026-04-25 21:15 | 37.74343 | 20.88706 | 20 ft | 34 kts | 165° |
| 2026-04-25 21:15 | 37.74170 | 20.88793 | 19 ft | 13 kts | 209° |
| 2026-04-25 21:16 | 37.74190 | 20.88760 | 19 ft | 0 kts | 345° |
| 2026-04-25 21:16 | 37.74193 | 20.88760 | 19 ft | 0 kts | 345° |
| 2026-04-25 21:16 | 37.74359 | 20.88696 | 19 ft | 69 kts | 342° |
| 2026-04-25 21:17 | 37.75088 | 20.88427 | 20 ft | 150 kts | 341° |
| 2026-04-25 21:17 | 37.76246 | 20.87962 | 441 ft | 191 kts | 343° |
| 2026-04-25 21:17 | 37.77633 | 20.87433 | 1049 ft | 219 kts | 344° |
| 2026-04-25 21:17 | 37.79088 | 20.86890 | 2002 ft | 221 kts | 345° |
| 2026-04-25 21:18 | 37.80526 | 20.86404 | 3048 ft | 208 kts | 347° |
| 2026-04-25 21:18 | 37.81921 | 20.85999 | 3833 ft | 207 kts | 347° |
| 2026-04-25 21:18 | 37.83347 | 20.85559 | 4440 ft | 215 kts | 345° |
| 2026-04-25 21:18 | 37.84856 | 20.85025 | 4740 ft | 238 kts | 344° |
| 2026-04-25 21:19 | 37.86537 | 20.84420 | 4941 ft | 264 kts | 345° |
| 2026-04-25 21:19 | 37.88385 | 20.83762 | 5130 ft | 292 kts | 345° |
| 2026-04-25 21:19 | 37.90403 | 20.83049 | 5627 ft | 310 kts | 345° |
| 2026-04-25 21:19 | 37.92501 | 20.82310 | 6514 ft | 315 kts | 346° |
| 2026-04-25 21:20 | 37.94617 | 20.81526 | 7398 ft | 320 kts | 340° |
| 2026-04-25 21:20 | 37.95303 | 20.81131 | 7668 ft | 324 kts | 332° |
| 2026-04-25 21:20 | 37.97711 | 20.77471 | 9037 ft | 339 kts | 292° |
| 2026-04-25 21:20 | 37.98166 | 20.74506 | 9896 ft | 345 kts | 278° |
| 2026-04-25 21:21 | 37.98869 | 20.71604 | 10606 ft | 348 kts | 304° |
| 2026-04-25 21:21 | 38.00405 | 20.69247 | 11438 ft | 347 kts | 314° |
| 2026-04-25 21:21 | 38.01988 | 20.66901 | 12206 ft | 353 kts | 311° |
| 2026-04-25 21:21 | 38.03511 | 20.64425 | 12960 ft | 358 kts | 309° |
| 2026-04-25 21:22 | 38.05011 | 20.61878 | 13726 ft | 363 kts | 308° |
| 2026-04-25 21:22 | 38.06480 | 20.59243 | 14428 ft | 367 kts | 307° |
| 2026-04-25 21:22 | 38.07942 | 20.56578 | 15139 ft | 370 kts | 308° |
| 2026-04-25 21:22 | 38.09430 | 20.53880 | 15843 ft | 373 kts | 308° |
| 2026-04-25 21:23 | 38.10910 | 20.51209 | 16516 ft | 377 kts | 309° |
| 2026-04-25 21:23 | 38.12563 | 20.48622 | 17179 ft | 378 kts | 317° |
| 2026-04-25 21:23 | 38.14438 | 20.46257 | 17851 ft | 380 kts | 320° |
| 2026-04-25 21:23 | 38.16381 | 20.43947 | 18499 ft | 384 kts | 321° |
| 2026-04-25 21:24 | 38.18338 | 20.41621 | 19075 ft | 387 kts | 320° |
| 2026-04-25 21:24 | 38.20300 | 20.39248 | 19669 ft | 390 kts | 320° |
| 2026-04-25 21:24 | 38.22268 | 20.36828 | 20251 ft | 394 kts | 319° |
| 2026-04-25 21:24 | 38.24241 | 20.34375 | 20819 ft | 398 kts | 319° |
| 2026-04-25 21:25 | 38.26222 | 20.31896 | 21390 ft | 401 kts | 319° |